createdAt,value
2019-03-04T00:00:05.125Z,9.70
2019-03-04T00:01:05.217Z,9.80
2019-03-04T00:02:05.281Z,9.80
2019-03-04T00:03:05.318Z,9.80
2019-03-04T00:04:07.969Z,9.80
2019-03-04T00:05:07.391Z,9.80
2019-03-04T00:06:05.301Z,9.80
2019-03-04T00:07:07.905Z,9.80
2019-03-04T00:08:07.405Z,9.80
2019-03-04T00:09:05.257Z,9.80
2019-03-04T00:10:05.244Z,9.80
2019-03-04T00:11:07.897Z,9.80
2019-03-04T00:12:10.060Z,9.80
2019-03-04T00:13:07.546Z,9.80
2019-03-04T00:14:05.499Z,9.80
2019-03-04T00:15:10.644Z,9.80
2019-03-04T00:16:05.612Z,9.80
2019-03-04T00:17:04.715Z,9.80
2019-03-04T00:18:07.333Z,9.80
2019-03-04T00:19:05.150Z,9.80
2019-03-04T00:20:05.236Z,9.80
2019-03-04T00:21:05.280Z,9.80
2019-03-04T00:22:10.451Z,9.80
2019-03-04T00:23:05.374Z,9.80
2019-03-04T00:24:05.390Z,9.80
2019-03-04T00:25:05.438Z,9.70
2019-03-04T00:26:05.567Z,9.80
2019-03-04T00:27:04.675Z,9.70
2019-03-04T00:28:04.693Z,9.70
2019-03-04T00:29:04.680Z,9.70
2019-03-04T00:30:04.698Z,9.70
2019-03-04T00:31:04.839Z,9.70
2019-03-04T00:32:07.535Z,9.70
2019-03-04T00:33:08.133Z,9.70
2019-03-04T00:34:05.035Z,9.70
2019-03-04T00:35:05.130Z,9.70
2019-03-04T00:36:05.129Z,9.70
2019-03-04T00:37:05.112Z,9.60
2019-03-04T00:38:07.602Z,9.60
2019-03-04T00:39:05.462Z,9.60
2019-03-04T00:40:05.500Z,9.60
2019-03-04T00:41:05.478Z,9.60
2019-03-04T00:42:05.523Z,9.60
2019-03-04T00:43:05.504Z,9.60
2019-03-04T00:44:05.516Z,9.60
2019-03-04T00:45:08.089Z,9.60
2019-03-04T00:46:04.984Z,9.60
2019-03-04T00:47:05.011Z,9.60
2019-03-04T00:48:07.579Z,9.50
2019-03-04T00:49:05.551Z,9.50
2019-03-04T00:50:05.545Z,9.50
2019-03-04T00:51:05.608Z,9.50
2019-03-04T00:52:04.769Z,9.50
2019-03-04T00:53:07.279Z,9.50
2019-03-04T00:54:07.674Z,9.50
2019-03-04T00:55:05.630Z,9.50
2019-03-04T00:56:07.179Z,9.50
2019-03-04T00:57:05.045Z,9.50
2019-03-04T00:58:05.070Z,9.50
2019-03-04T00:59:05.068Z,9.50
2019-03-04T01:00:07.603Z,9.40
2019-03-04T01:01:10.677Z,9.40
2019-03-04T01:02:09.656Z,9.50
2019-03-04T01:03:05.683Z,9.40
2019-03-04T01:04:07.257Z,9.50
2019-03-04T01:05:05.120Z,9.40
2019-03-04T01:06:05.238Z,9.40
2019-03-04T01:07:08.003Z,9.40
2019-03-04T01:08:15.008Z,9.40
2019-03-04T01:09:10.118Z,9.40
2019-03-04T01:10:05.087Z,9.40
2019-03-04T01:11:05.118Z,9.40
2019-03-04T01:12:07.658Z,9.40
2019-03-04T01:13:05.682Z,9.40
2019-03-04T01:14:04.751Z,9.40
2019-03-04T01:15:07.305Z,9.40
2019-03-04T01:16:05.158Z,9.40
2019-03-04T01:17:07.724Z,9.40
2019-03-04T01:18:05.702Z,9.40
2019-03-04T01:19:07.395Z,9.30
2019-03-04T01:20:05.308Z,9.40
2019-03-04T01:21:05.588Z,9.40
2019-03-04T01:22:05.661Z,9.40
2019-03-04T01:23:04.832Z,9.40
2019-03-04T01:24:07.403Z,9.40
2019-03-04T01:25:05.407Z,9.40
2019-03-04T01:26:05.437Z,9.40
2019-03-04T01:27:08.157Z,9.40
2019-03-04T01:28:07.558Z,9.30
2019-03-04T01:29:05.461Z,9.40
2019-03-04T01:30:07.276Z,9.30
2019-03-04T01:31:07.201Z,9.30
2019-03-04T01:32:07.617Z,9.30
2019-03-04T01:33:05.492Z,9.30
2019-03-04T01:34:05.562Z,9.30
2019-03-04T01:35:04.529Z,9.30
2019-03-04T01:36:05.572Z,9.30
2019-03-04T01:37:07.208Z,9.30
2019-03-04T01:38:07.609Z,9.30
2019-03-04T01:39:05.568Z,9.30
2019-03-04T01:40:08.098Z,9.30
2019-03-04T01:41:07.511Z,9.30
2019-03-04T01:42:05.463Z,9.20
2019-03-04T01:43:08.175Z,9.30
2019-03-04T01:44:05.045Z,9.30
2019-03-04T01:45:07.653Z,9.30
2019-03-04T01:46:05.550Z,9.30
2019-03-04T01:47:05.662Z,9.30
2019-03-04T01:48:07.325Z,9.40
2019-03-04T01:49:05.226Z,9.30
2019-03-04T01:50:07.844Z,9.40
2019-03-04T01:51:04.686Z,9.40
2019-03-04T01:52:04.894Z,9.40
2019-03-04T01:53:04.978Z,9.50
2019-03-04T01:54:07.549Z,9.50
2019-03-04T01:55:08.073Z,9.40
2019-03-04T01:56:07.563Z,9.40
2019-03-04T01:57:08.086Z,9.50
2019-03-04T01:58:07.515Z,9.50
2019-03-04T01:59:07.985Z,9.50
2019-03-04T02:00:07.415Z,9.50
2019-03-04T02:01:07.900Z,9.50
2019-03-04T02:02:07.461Z,9.50
2019-03-04T02:03:08.011Z,9.50
2019-03-04T02:04:07.555Z,9.50
2019-03-04T02:05:08.030Z,9.50
2019-03-04T02:06:07.387Z,9.50
2019-03-04T02:07:05.409Z,9.50
2019-03-04T02:08:07.926Z,9.50
2019-03-04T02:09:07.363Z,9.50
2019-03-04T02:10:05.251Z,9.50
2019-03-04T02:11:05.210Z,9.50
2019-03-04T02:12:05.316Z,9.50
2019-03-04T02:13:07.891Z,9.50
2019-03-04T02:14:07.239Z,9.40
2019-03-04T02:15:07.611Z,9.40
2019-03-04T02:16:05.553Z,9.40
2019-03-04T02:17:04.624Z,9.40
2019-03-04T02:18:04.651Z,9.40
2019-03-04T02:19:04.690Z,9.40
2019-03-04T02:20:04.788Z,9.40
2019-03-04T02:21:04.870Z,9.40
2019-03-04T02:22:04.884Z,9.40
2019-03-04T02:23:07.419Z,9.30
2019-03-04T02:24:05.473Z,9.30
2019-03-04T02:25:05.585Z,9.30
2019-03-04T02:26:04.598Z,9.30
2019-03-04T02:27:04.575Z,9.30
2019-03-04T02:28:04.605Z,9.30
2019-03-04T02:29:07.210Z,9.30
2019-03-04T02:30:05.219Z,9.30
2019-03-04T02:31:05.443Z,9.30
2019-03-04T02:32:08.098Z,9.30
2019-03-04T02:33:04.978Z,9.30
2019-03-04T02:34:10.350Z,9.30
2019-03-04T02:35:05.238Z,9.30
2019-03-04T02:36:07.964Z,9.20
2019-03-04T02:37:04.860Z,9.20
2019-03-04T02:38:04.896Z,9.20
2019-03-04T02:39:04.905Z,9.20
2019-03-04T02:40:04.891Z,9.20
2019-03-04T02:41:04.867Z,9.20
2019-03-04T02:42:07.506Z,9.10
2019-03-04T02:43:05.515Z,9.10
2019-03-04T02:44:04.692Z,9.10
2019-03-04T02:45:07.320Z,9.10
2019-03-04T02:46:07.719Z,9.10
2019-03-04T02:47:07.277Z,9.10
2019-03-04T02:48:05.184Z,9.10
2019-03-04T02:49:05.227Z,9.10
2019-03-04T02:50:04.717Z,9.10
2019-03-04T02:51:04.756Z,9.10
2019-03-04T02:52:04.740Z,9.00
2019-03-04T02:53:07.532Z,9.00
2019-03-04T02:54:08.050Z,9.00
2019-03-04T02:55:05.048Z,9.00
2019-03-04T02:56:05.073Z,9.00
2019-03-04T02:57:05.023Z,8.90
2019-03-04T02:58:05.107Z,9.00
2019-03-04T02:59:05.282Z,9.00
2019-03-04T03:00:05.338Z,9.00
2019-03-04T03:01:05.369Z,9.00
2019-03-04T03:02:07.932Z,8.90
2019-03-04T03:03:07.328Z,8.90
2019-03-04T03:04:05.210Z,8.90
2019-03-04T03:05:07.732Z,8.90
2019-03-04T03:06:07.159Z,8.90
2019-03-04T03:07:05.040Z,8.90
2019-03-04T03:08:05.064Z,8.90
2019-03-04T03:09:07.602Z,8.80
2019-03-04T03:10:05.603Z,8.80
2019-03-04T03:11:04.733Z,8.80
2019-03-04T03:12:04.800Z,8.90
2019-03-04T03:13:07.520Z,8.80
2019-03-04T03:14:05.436Z,8.80
2019-03-04T03:15:05.504Z,8.80
2019-03-04T03:16:05.496Z,8.80
2019-03-04T03:17:05.582Z,8.80
2019-03-04T03:18:05.688Z,8.80
2019-03-04T03:19:04.690Z,8.80
2019-03-04T03:20:04.666Z,8.80
2019-03-04T03:21:07.229Z,8.90
2019-03-04T03:22:05.229Z,8.90
2019-03-04T03:23:05.300Z,8.90
2019-03-04T03:24:05.405Z,9.00
2019-03-04T03:25:07.980Z,9.10
2019-03-04T03:26:04.867Z,9.10
2019-03-04T03:27:04.874Z,9.10
2019-03-04T03:28:04.840Z,9.20
2019-03-04T03:29:04.971Z,9.20
2019-03-04T03:30:05.178Z,9.30
2019-03-04T03:31:05.184Z,9.30
2019-03-04T03:32:05.230Z,9.30
2019-03-04T03:33:05.271Z,9.30
2019-03-04T03:34:07.884Z,9.40
2019-03-04T03:35:08.485Z,9.40
2019-03-04T03:36:04.870Z,9.40
2019-03-04T03:37:07.458Z,9.40
2019-03-04T03:38:05.392Z,9.40
2019-03-04T03:39:05.448Z,9.40
2019-03-04T03:40:05.594Z,9.40
2019-03-04T03:41:07.225Z,9.50
2019-03-04T03:42:05.174Z,9.50
2019-03-04T03:43:07.713Z,9.50
2019-03-04T03:44:04.609Z,9.50
2019-03-04T03:45:07.177Z,9.50
2019-03-04T03:46:05.103Z,9.50
2019-03-04T03:47:05.245Z,9.50
2019-03-04T03:48:07.987Z,9.50
2019-03-04T03:49:07.449Z,9.50
2019-03-04T03:50:07.935Z,9.50
2019-03-04T03:51:04.836Z,9.50
2019-03-04T03:52:07.414Z,9.50
2019-03-04T03:53:05.347Z,9.40
2019-03-04T03:54:05.362Z,9.50
2019-03-04T03:55:05.658Z,9.50
2019-03-04T03:56:04.739Z,9.50
2019-03-04T03:57:04.861Z,9.50
2019-03-04T03:58:05.048Z,9.50
2019-03-04T03:59:07.604Z,9.50
2019-03-04T04:00:05.563Z,9.40
2019-03-04T04:01:04.680Z,9.50
2019-03-04T04:02:04.771Z,9.50
2019-03-04T04:03:07.334Z,9.50
2019-03-04T04:04:07.856Z,9.50
2019-03-04T04:05:07.286Z,9.50
2019-03-04T04:06:05.224Z,9.50
2019-03-04T04:07:05.287Z,9.50
2019-03-04T04:08:07.823Z,9.50
2019-03-04T04:09:04.694Z,9.50
2019-03-04T04:10:04.689Z,9.50
2019-03-04T04:11:04.689Z,9.50
2019-03-04T04:12:04.697Z,9.50
2019-03-04T04:13:09.900Z,9.50
2019-03-04T04:14:07.404Z,9.50
2019-03-04T04:15:05.304Z,9.50
2019-03-04T04:16:08.052Z,9.50
2019-03-04T04:17:05.027Z,9.50
2019-03-04T04:18:05.142Z,9.50
2019-03-04T04:19:05.209Z,9.50
2019-03-04T04:20:05.219Z,9.50
2019-03-04T04:21:05.347Z,9.60
2019-03-04T04:22:08.048Z,9.60
2019-03-04T04:23:05.093Z,9.60
2019-03-04T04:24:05.273Z,9.60
2019-03-04T04:25:07.982Z,9.60
2019-03-04T04:26:07.586Z,9.60
2019-03-04T04:27:05.459Z,9.60
2019-03-04T04:28:05.439Z,9.60
2019-03-04T04:29:08.056Z,9.60
2019-03-04T04:30:04.927Z,9.60
2019-03-04T04:31:04.942Z,9.60
2019-03-04T04:32:05.134Z,9.60
2019-03-04T04:33:05.277Z,9.60
2019-03-04T04:34:07.883Z,9.60
2019-03-04T04:35:07.373Z,9.60
2019-03-04T04:36:07.955Z,9.60
2019-03-04T04:37:04.930Z,9.60
2019-03-04T04:38:07.535Z,9.60
2019-03-04T04:39:05.475Z,9.60
2019-03-04T04:40:05.478Z,9.60
2019-03-04T04:41:05.623Z,9.60
2019-03-04T04:42:07.404Z,9.60
2019-03-04T04:43:05.302Z,9.60
2019-03-04T04:44:05.248Z,9.60
2019-03-04T04:45:07.774Z,9.70
2019-03-04T04:46:07.559Z,9.60
2019-03-04T04:47:05.446Z,9.70
2019-03-04T04:48:05.418Z,9.70
2019-03-04T04:49:05.497Z,9.60
2019-03-04T04:50:08.051Z,9.60
2019-03-04T04:51:04.861Z,9.60
2019-03-04T04:52:07.369Z,9.60
2019-03-04T04:53:07.860Z,9.60
2019-03-04T04:54:07.305Z,9.60
2019-03-04T04:55:07.674Z,9.60
2019-03-04T04:56:05.547Z,9.60
2019-03-04T04:57:05.567Z,9.60
2019-03-04T04:58:08.252Z,9.60
2019-03-04T04:59:05.150Z,9.60
2019-03-04T05:00:05.172Z,9.60
2019-03-04T05:01:05.200Z,9.60
2019-03-04T05:02:07.832Z,9.60
2019-03-04T05:03:04.682Z,9.60
2019-03-04T05:04:04.682Z,9.60
2019-03-04T05:05:04.826Z,9.70
2019-03-04T05:06:07.329Z,9.60
2019-03-04T05:07:05.214Z,9.60
2019-03-04T05:08:05.282Z,9.60
2019-03-04T05:09:05.296Z,9.70
2019-03-04T05:10:07.911Z,9.70
2019-03-04T05:11:04.751Z,9.70
2019-03-04T05:12:04.876Z,9.70
2019-03-04T05:13:04.994Z,9.70
2019-03-04T05:14:07.578Z,9.70
2019-03-04T05:15:05.387Z,9.70
2019-03-04T05:16:08.053Z,9.70
2019-03-04T05:17:05.013Z,9.70
2019-03-04T05:18:04.986Z,9.70
2019-03-04T05:19:05.039Z,9.70
2019-03-04T05:20:05.033Z,9.70
2019-03-04T05:21:05.051Z,9.70
2019-03-04T05:22:05.027Z,9.80
2019-03-04T05:23:07.717Z,9.70
2019-03-04T05:24:04.713Z,9.70
2019-03-04T05:25:09.924Z,9.80
2019-03-04T05:26:07.413Z,9.70
2019-03-04T05:27:05.327Z,9.70
2019-03-04T05:28:05.376Z,9.70
2019-03-04T05:29:05.336Z,9.70
2019-03-04T05:30:07.133Z,9.70
2019-03-04T05:31:07.620Z,9.70
2019-03-04T05:32:05.517Z,9.70
2019-03-04T05:33:05.569Z,9.70
2019-03-04T05:34:04.644Z,9.70
2019-03-04T05:35:04.736Z,9.70
2019-03-04T05:36:04.744Z,9.80
2019-03-04T05:37:07.240Z,9.80
2019-03-04T05:38:07.679Z,9.80
2019-03-04T05:39:04.961Z,9.80
2019-03-04T05:40:07.570Z,9.80
2019-03-04T05:41:07.954Z,9.80
2019-03-04T05:42:04.836Z,9.80
2019-03-04T05:43:07.456Z,9.90
2019-03-04T05:44:05.454Z,9.90
2019-03-04T05:45:05.667Z,9.90
2019-03-04T05:46:04.631Z,9.90
2019-03-04T05:47:07.186Z,10.00
2019-03-04T05:48:05.044Z,9.90
2019-03-04T05:49:05.395Z,10.00
2019-03-04T05:50:07.314Z,10.00
2019-03-04T05:51:05.292Z,10.00
2019-03-04T05:52:07.964Z,10.00
2019-03-04T05:53:05.001Z,10.00
2019-03-04T05:54:04.993Z,10.10
2019-03-04T05:55:08.863Z,10.10
2019-03-04T05:56:07.500Z,10.10
2019-03-04T05:57:07.981Z,10.20
2019-03-04T05:58:04.936Z,10.20
2019-03-04T05:59:05.057Z,10.10
2019-03-04T06:00:05.551Z,10.20
2019-03-04T06:01:04.717Z,10.20
2019-03-04T06:02:07.340Z,10.30
2019-03-04T06:03:05.228Z,10.20
2019-03-04T06:04:07.818Z,10.30
2019-03-04T06:05:04.862Z,10.30
2019-03-04T06:06:07.503Z,10.40
2019-03-04T06:07:05.380Z,10.30
2019-03-04T06:08:05.460Z,10.30
2019-03-04T06:09:05.507Z,10.40
2019-03-04T06:10:04.739Z,10.40
2019-03-04T06:11:07.353Z,10.50
2019-03-04T06:12:05.226Z,10.40
2019-03-04T06:13:07.810Z,10.50
2019-03-04T06:14:04.836Z,10.50
2019-03-04T06:15:04.935Z,10.50
2019-03-04T06:16:04.947Z,10.50
2019-03-04T06:17:07.615Z,10.50
2019-03-04T06:18:05.489Z,10.50
2019-03-04T06:19:05.553Z,10.50
2019-03-04T06:20:05.571Z,10.50
2019-03-04T06:21:04.730Z,10.50
2019-03-04T06:22:04.760Z,10.50
2019-03-04T06:23:04.792Z,10.50
2019-03-04T06:24:04.795Z,10.50
2019-03-04T06:25:07.392Z,10.50
2019-03-04T06:26:04.576Z,10.50
2019-03-04T06:27:04.670Z,10.50
2019-03-04T06:28:04.786Z,10.50
2019-03-04T06:29:07.508Z,10.50
2019-03-04T06:30:05.624Z,10.50
2019-03-04T06:31:04.759Z,10.50
2019-03-04T06:32:07.586Z,10.50
2019-03-04T06:33:05.534Z,10.50
2019-03-04T06:34:05.589Z,10.50
2019-03-04T06:35:04.706Z,10.60
2019-03-04T06:36:04.762Z,10.60
2019-03-04T06:37:04.773Z,10.50
2019-03-04T06:38:04.750Z,10.60
2019-03-04T06:39:04.845Z,10.50
2019-03-04T06:40:07.564Z,10.50
2019-03-04T06:41:05.488Z,10.50
2019-03-04T06:42:05.590Z,10.60
2019-03-04T06:43:07.195Z,10.50
2019-03-04T06:44:05.099Z,10.60
2019-03-04T06:45:05.228Z,10.50
2019-03-04T06:46:07.958Z,10.60
2019-03-04T06:47:04.853Z,10.50
2019-03-04T06:48:04.854Z,10.50
2019-03-04T06:49:04.834Z,10.50
2019-03-04T06:50:07.347Z,10.50
2019-03-04T06:51:07.757Z,10.50
2019-03-04T06:52:04.754Z,10.50
2019-03-04T06:53:04.784Z,10.50
2019-03-04T06:54:07.434Z,10.50
2019-03-04T06:55:05.404Z,10.50
2019-03-04T06:56:05.455Z,10.50
2019-03-04T06:57:05.497Z,10.50
2019-03-04T06:58:08.169Z,10.50
2019-03-04T06:59:05.165Z,10.50
2019-03-04T07:00:05.254Z,10.50
2019-03-04T07:01:05.475Z,10.50
2019-03-04T07:02:05.518Z,10.60
2019-03-04T07:03:09.366Z,10.60
2019-03-04T07:04:05.288Z,10.50
2019-03-04T07:05:05.285Z,10.60
2019-03-04T07:06:08.148Z,10.60
2019-03-04T07:07:05.096Z,10.50
2019-03-04T07:08:05.199Z,10.60
2019-03-04T07:09:07.755Z,10.60
2019-03-04T07:10:04.604Z,10.60
2019-03-04T07:11:07.150Z,10.70
2019-03-04T07:12:07.542Z,10.60
2019-03-04T07:13:05.470Z,10.60
2019-03-04T07:14:05.459Z,10.70
2019-03-04T07:15:08.143Z,10.70
2019-03-04T07:16:07.819Z,10.70
2019-03-04T07:17:04.906Z,10.70
2019-03-04T07:18:07.549Z,10.70
2019-03-04T07:19:05.458Z,10.70
2019-03-04T07:20:05.541Z,10.70
2019-03-04T07:21:08.119Z,10.70
2019-03-04T07:22:07.638Z,10.80
2019-03-04T07:23:05.550Z,10.70
2019-03-04T07:24:08.053Z,10.80
2019-03-04T07:25:04.914Z,10.80
2019-03-04T07:26:07.411Z,10.80
2019-03-04T07:27:05.248Z,10.80
2019-03-04T07:28:05.206Z,10.80
2019-03-04T07:29:05.199Z,10.80
2019-03-04T07:30:10.313Z,10.80
2019-03-04T07:31:07.776Z,10.90
2019-03-04T07:32:09.813Z,10.90
2019-03-04T07:33:07.271Z,10.90
2019-03-04T07:34:07.722Z,10.90
2019-03-04T07:35:08.110Z,10.90
2019-03-04T07:36:04.947Z,10.90
2019-03-04T07:37:04.899Z,10.90
2019-03-04T07:38:04.863Z,10.90
2019-03-04T07:39:04.898Z,10.90
2019-03-04T07:40:05.098Z,10.90
2019-03-04T07:41:10.111Z,10.90
2019-03-04T07:42:07.471Z,10.90
2019-03-04T07:43:05.174Z,10.90
2019-03-04T07:44:07.796Z,11.00
2019-03-04T07:45:04.709Z,10.90
2019-03-04T07:46:04.663Z,11.00
2019-03-04T07:47:04.605Z,11.10
2019-03-04T07:48:05.591Z,11.20
2019-03-04T07:49:05.698Z,11.20
2019-03-04T07:50:04.748Z,11.30
2019-03-04T07:51:07.261Z,11.50
2019-03-04T07:52:05.668Z,11.40
2019-03-04T07:53:04.614Z,11.50
2019-03-04T07:54:07.163Z,11.70
2019-03-04T07:55:10.081Z,11.80
2019-03-04T07:56:04.951Z,11.80
2019-03-04T07:57:04.965Z,11.90
2019-03-04T07:58:04.944Z,12.00
2019-03-04T07:59:04.935Z,12.10
2019-03-04T08:00:05.068Z,12.10
2019-03-04T08:01:05.089Z,12.20
2019-03-04T08:02:05.089Z,12.30
2019-03-04T08:03:05.387Z,12.40
2019-03-04T08:04:05.532Z,12.40
2019-03-04T08:05:05.570Z,12.50
2019-03-04T08:06:05.600Z,12.60
2019-03-04T08:07:04.719Z,12.60
2019-03-04T08:08:07.304Z,12.70
2019-03-04T08:09:05.139Z,12.70
2019-03-04T08:10:07.663Z,12.80
2019-03-04T08:11:05.627Z,12.80
2019-03-04T08:12:04.770Z,12.90
2019-03-04T08:13:07.276Z,12.90
2019-03-04T08:14:07.685Z,13.00
2019-03-04T08:15:08.187Z,13.00
2019-03-04T08:16:05.176Z,13.00
2019-03-04T08:17:05.318Z,13.10
2019-03-04T08:18:05.361Z,13.10
2019-03-04T08:19:07.852Z,13.30
2019-03-04T08:20:04.664Z,13.30
2019-03-04T08:21:04.618Z,13.30
2019-03-04T08:22:07.225Z,13.40
2019-03-04T08:23:05.188Z,13.40
2019-03-04T08:24:07.713Z,13.40
2019-03-04T08:25:05.564Z,13.40
2019-03-04T08:26:05.537Z,13.40
2019-03-04T08:27:05.527Z,13.30
2019-03-04T08:28:05.598Z,13.30
2019-03-04T08:29:04.590Z,13.30
2019-03-04T08:30:05.586Z,13.30
2019-03-04T08:31:04.602Z,13.30
2019-03-04T08:32:04.632Z,13.30
2019-03-04T08:33:04.585Z,13.30
2019-03-04T08:34:05.562Z,13.30
2019-03-04T08:35:08.100Z,13.30
2019-03-04T08:36:04.962Z,13.30
2019-03-04T08:37:05.094Z,13.30
2019-03-04T08:38:07.644Z,13.10
2019-03-04T08:39:05.453Z,13.20
2019-03-04T08:40:05.441Z,13.10
2019-03-04T08:41:08.045Z,13.00
2019-03-04T08:42:07.512Z,12.90
2019-03-04T08:43:05.357Z,12.90
2019-03-04T08:44:07.945Z,12.80
2019-03-04T08:45:04.804Z,12.80
2019-03-04T08:46:04.900Z,12.80
2019-03-04T08:47:07.566Z,12.70
2019-03-04T08:48:08.120Z,12.70
2019-03-04T08:49:07.590Z,12.60
2019-03-04T08:50:05.586Z,12.60
2019-03-04T08:51:04.631Z,12.60
2019-03-04T08:52:04.571Z,12.60
2019-03-04T08:53:05.566Z,12.60
2019-03-04T08:54:05.585Z,12.60
2019-03-04T08:55:07.210Z,12.50
2019-03-04T08:56:05.095Z,12.50
2019-03-04T08:57:05.128Z,12.50
2019-03-04T08:58:05.084Z,12.50
2019-03-04T08:59:07.562Z,12.50
2019-03-04T09:00:05.541Z,12.60
2019-03-04T09:01:05.676Z,12.50
2019-03-04T09:02:04.707Z,12.60
2019-03-04T09:03:04.727Z,12.50
2019-03-04T09:04:04.770Z,12.50
2019-03-04T09:05:04.896Z,12.60
2019-03-04T09:06:04.865Z,12.50
2019-03-04T09:07:04.916Z,12.50
2019-03-04T09:08:05.065Z,12.50
2019-03-04T09:09:07.600Z,12.60
2019-03-04T09:10:07.955Z,12.50
2019-03-04T09:11:04.765Z,12.50
2019-03-04T09:12:07.210Z,12.50
2019-03-04T09:13:05.087Z,12.50
2019-03-04T09:14:05.077Z,12.50
2019-03-04T09:15:05.012Z,12.50
2019-03-04T09:16:05.023Z,12.50
2019-03-04T09:17:10.604Z,12.40
2019-03-04T09:18:04.712Z,12.50
2019-03-04T09:19:07.417Z,12.50
2019-03-04T09:20:05.393Z,12.50
2019-03-04T09:21:05.349Z,12.50
2019-03-04T09:22:07.842Z,12.50
2019-03-04T09:23:04.747Z,12.50
2019-03-04T09:24:09.941Z,12.60
2019-03-04T09:25:04.884Z,12.60
2019-03-04T09:26:04.913Z,12.60
2019-03-04T09:27:04.887Z,12.60
2019-03-04T09:28:04.935Z,12.60
2019-03-04T09:29:07.462Z,12.80
2019-03-04T09:30:07.828Z,12.90
2019-03-04T09:31:04.648Z,12.80
2019-03-04T09:32:04.712Z,12.90
2019-03-04T09:33:04.720Z,13.00
2019-03-04T09:34:07.399Z,13.20
2019-03-04T09:35:05.281Z,13.10
2019-03-04T09:36:05.427Z,13.20
2019-03-04T09:37:05.583Z,13.30
2019-03-04T09:38:04.584Z,13.40
2019-03-04T09:39:08.127Z,13.50
2019-03-04T09:40:05.020Z,13.50
2019-03-04T09:41:04.946Z,13.60
2019-03-04T09:42:07.476Z,13.70
2019-03-04T09:43:05.395Z,13.70
2019-03-04T09:44:13.138Z,13.70
2019-03-04T09:45:05.010Z,13.70
2019-03-04T09:46:05.107Z,13.70
2019-03-04T09:47:05.167Z,13.70
2019-03-04T09:48:07.810Z,13.70
2019-03-04T09:49:04.751Z,13.70
2019-03-04T09:50:04.807Z,13.80
2019-03-04T09:51:07.428Z,13.80
2019-03-04T09:52:05.268Z,13.80
2019-03-04T09:53:05.282Z,13.80
2019-03-04T09:54:05.415Z,13.80
2019-03-04T09:55:05.379Z,13.80
2019-03-04T09:56:05.443Z,13.90
2019-03-04T09:57:07.931Z,13.90
2019-03-04T09:58:07.284Z,13.90
2019-03-04T09:59:07.728Z,13.90
2019-03-04T10:00:04.611Z,13.90
2019-03-04T10:01:10.791Z,13.90
2019-03-04T10:02:04.727Z,13.90
2019-03-04T10:03:04.729Z,13.80
2019-03-04T10:04:04.718Z,13.80
2019-03-04T10:05:04.719Z,13.80
2019-03-04T10:06:07.191Z,13.80
2019-03-04T10:07:05.014Z,13.70
2019-03-04T10:08:05.013Z,13.80
2019-03-04T10:09:04.982Z,13.70
2019-03-04T10:10:07.617Z,13.70
2019-03-04T10:11:05.464Z,13.70
2019-03-04T10:12:07.925Z,13.80
2019-03-04T10:13:04.810Z,13.80
2019-03-04T10:14:04.833Z,13.80
2019-03-04T10:15:08.143Z,13.80
2019-03-04T10:16:04.923Z,13.80
2019-03-04T10:17:07.466Z,13.80
2019-03-04T10:18:07.866Z,13.70
2019-03-04T10:19:04.774Z,13.70
2019-03-04T10:20:04.813Z,13.70
2019-03-04T10:21:04.792Z,13.80
2019-03-04T10:22:04.814Z,13.80
2019-03-04T10:23:05.087Z,13.80
2019-03-04T10:24:05.119Z,13.80
2019-03-04T10:25:07.730Z,13.90
2019-03-04T10:26:05.549Z,13.90
2019-03-04T10:27:05.509Z,13.90
2019-03-04T10:28:08.187Z,13.90
2019-03-04T10:29:10.070Z,13.90
2019-03-04T10:30:07.543Z,13.90
2019-03-04T10:31:08.003Z,13.90
2019-03-04T10:32:04.838Z,13.90
2019-03-04T10:33:07.442Z,14.00
2019-03-04T10:34:05.310Z,13.90
2019-03-04T10:35:05.301Z,13.90
2019-03-04T10:36:05.239Z,13.90
2019-03-04T10:37:05.567Z,13.90
2019-03-04T10:38:05.518Z,13.90
2019-03-04T10:39:07.995Z,14.00
2019-03-04T10:40:07.496Z,14.00
2019-03-04T10:41:08.001Z,14.00
2019-03-04T10:42:07.420Z,14.00
2019-03-04T10:43:05.335Z,14.00
2019-03-04T10:44:05.453Z,14.00
2019-03-04T10:45:05.523Z,14.10
2019-03-04T10:46:05.548Z,14.00
2019-03-04T10:47:07.234Z,14.00
2019-03-04T10:48:05.262Z,14.10
2019-03-04T10:49:07.751Z,14.10
2019-03-04T10:50:08.109Z,14.20
2019-03-04T10:51:04.900Z,14.20
2019-03-04T10:52:09.915Z,14.20
2019-03-04T10:53:07.291Z,14.20
2019-03-04T10:54:05.169Z,14.10
2019-03-04T10:55:10.247Z,14.10
2019-03-04T10:56:05.107Z,14.10
2019-03-04T10:57:07.579Z,14.10
2019-03-04T10:58:05.416Z,14.10
2019-03-04T10:59:05.347Z,14.20
2019-03-04T11:00:07.826Z,14.20
2019-03-04T11:01:04.766Z,14.10
2019-03-04T11:02:07.483Z,14.30
2019-03-04T11:03:05.319Z,14.20
2019-03-04T11:04:05.313Z,14.30
2019-03-04T11:05:07.186Z,14.30
2019-03-04T11:06:05.002Z,14.30
2019-03-04T11:07:04.947Z,14.30
2019-03-04T11:08:05.018Z,14.30
2019-03-04T11:09:07.486Z,14.20
2019-03-04T11:10:05.352Z,14.20
2019-03-04T11:11:05.289Z,14.20
2019-03-04T11:12:05.365Z,14.20
2019-03-04T11:13:07.919Z,14.10
2019-03-04T11:14:04.757Z,14.10
2019-03-04T11:15:04.777Z,14.10
2019-03-04T11:16:07.371Z,14.10
2019-03-04T11:17:05.291Z,14.10
2019-03-04T11:18:05.286Z,14.10
2019-03-04T11:19:05.256Z,14.10
2019-03-04T11:20:05.209Z,14.00
2019-03-04T11:21:05.153Z,14.00
2019-03-04T11:22:05.070Z,13.90
2019-03-04T11:23:05.047Z,13.90
2019-03-04T11:24:04.954Z,13.80
2019-03-04T11:25:04.964Z,13.80
2019-03-04T11:26:07.464Z,13.70
2019-03-04T11:27:07.860Z,13.70
2019-03-04T11:28:07.196Z,13.70
2019-03-04T11:29:04.980Z,13.60
2019-03-04T11:30:04.887Z,13.70
2019-03-04T11:31:07.365Z,13.60
2019-03-04T11:32:05.237Z,13.60
2019-03-04T11:33:05.175Z,13.70
2019-03-04T11:34:05.099Z,13.70
2019-03-04T11:35:07.595Z,13.80
2019-03-04T11:36:05.537Z,13.80
2019-03-04T11:37:08.423Z,13.90
2019-03-04T11:38:05.293Z,13.90
2019-03-04T11:39:08.115Z,14.00
2019-03-04T11:40:12.681Z,14.00
2019-03-04T11:41:05.551Z,14.00
2019-03-04T11:42:05.503Z,14.00
2019-03-04T11:43:05.477Z,14.00
2019-03-04T11:44:07.958Z,14.00
2019-03-04T11:45:07.362Z,14.00
2019-03-04T11:46:07.838Z,13.90
2019-03-04T11:47:04.727Z,13.90
2019-03-04T11:48:04.723Z,13.90
2019-03-04T11:49:04.849Z,13.80
2019-03-04T11:50:04.928Z,13.70
2019-03-04T11:51:07.485Z,13.60
2019-03-04T11:52:05.313Z,13.60
2019-03-04T11:53:07.780Z,13.50
2019-03-04T11:54:04.569Z,13.50
2019-03-04T11:55:05.632Z,13.50
2019-03-04T11:56:07.148Z,13.40
2019-03-04T11:57:07.482Z,13.30
2019-03-04T11:58:05.403Z,13.30
2019-03-04T11:59:05.361Z,13.30
2019-03-04T12:00:05.355Z,13.20
2019-03-04T12:01:05.337Z,13.20
2019-03-04T12:02:07.812Z,13.20
2019-03-04T12:03:04.628Z,13.20
2019-03-04T12:04:08.126Z,13.10
2019-03-04T12:05:04.917Z,13.10
2019-03-04T12:06:04.873Z,13.10
2019-03-04T12:07:04.910Z,13.10
2019-03-04T12:08:04.887Z,13.00
2019-03-04T12:09:04.962Z,13.00
2019-03-04T12:10:05.104Z,13.00
2019-03-04T12:11:05.176Z,13.00
2019-03-04T12:12:05.120Z,12.90
2019-03-04T12:13:07.745Z,12.90
2019-03-04T12:14:07.144Z,12.90
2019-03-04T12:15:04.918Z,12.90
2019-03-04T12:16:04.917Z,12.80
2019-03-04T12:17:04.893Z,12.80
2019-03-04T12:18:07.378Z,12.70
2019-03-04T12:19:07.771Z,12.70
2019-03-04T12:20:07.144Z,12.60
2019-03-04T12:21:07.552Z,12.60
2019-03-04T12:22:05.401Z,12.60
2019-03-04T12:23:07.946Z,12.50
2019-03-04T12:24:07.342Z,12.50
2019-03-04T12:25:05.224Z,12.50
2019-03-04T12:26:05.187Z,12.50
2019-03-04T12:27:05.198Z,12.50
2019-03-04T12:28:05.123Z,12.40
2019-03-04T12:29:05.109Z,12.40
2019-03-04T12:30:05.034Z,12.40
2019-03-04T12:31:07.472Z,12.30
2019-03-04T12:32:05.466Z,12.30
2019-03-04T12:33:04.615Z,12.30
2019-03-04T12:34:05.687Z,12.30
2019-03-04T12:35:07.419Z,12.20
2019-03-04T12:36:05.534Z,12.10
2019-03-04T12:37:04.909Z,12.10
2019-03-04T12:38:10.547Z,12.00
2019-03-04T12:39:06.071Z,12.00
2019-03-04T12:40:05.920Z,12.00
2019-03-04T12:41:13.236Z,11.70
2019-03-04T12:42:05.644Z,11.90
2019-03-04T12:43:05.115Z,11.90
2019-03-04T12:44:08.092Z,11.90
2019-03-04T12:45:05.318Z,11.90
2019-03-04T12:46:10.622Z,11.90
2019-03-04T12:47:13.549Z,11.80
2019-03-04T12:48:08.299Z,11.80
2019-03-04T12:49:23.710Z,11.80
2019-03-04T12:50:10.020Z,11.80
2019-03-04T12:51:05.764Z,11.80
2019-03-04T12:52:05.675Z,11.80
2019-03-04T12:53:05.444Z,11.90
2019-03-04T12:54:10.898Z,11.90
2019-03-04T12:55:10.566Z,11.90
2019-03-04T12:56:11.367Z,11.90
2019-03-04T12:57:07.719Z,11.90
2019-03-04T12:58:05.050Z,11.90
2019-03-04T12:59:10.491Z,11.90
2019-03-04T13:00:10.727Z,11.90
2019-03-04T13:01:04.758Z,11.90
2019-03-04T13:02:07.541Z,11.90
2019-03-04T13:03:05.478Z,11.90